Observation data for Ralls on 01/17/2019      Previous  Date  Next       Current Mesonet Observations  Soil Data  Daily Summary Page  Observations in Plain Language
KRLS 170600Z 27016KT 11/M01 A3007 RMK A01 T01101014  RH  043%=      5-min Rain = 0
KRLS 170605Z 27015KT 11/M02 A3008 RMK A01 T01071015  RH  043%=      5-min Rain = 0
KRLS 170610Z 27014KT 10/M01 A3008 RMK A01 T01001014  RH  045%=      5-min Rain = 0
KRLS 170615Z 27013KT 10/M01 A3008 RMK A01 T00991014  RH  046%=      5-min Rain = 0
KRLS 170620Z 28011KT 10/M01 A3009 RMK A01 T00971014  RH  046%=      5-min Rain = 0
KRLS 170625Z 28011KT 10/M02 A3009 RMK A01 T00961015  RH  046%=      5-min Rain = 0
KRLS 170630Z 28012KT 09/M02 A3009 RMK A01 T00941015  RH  047%=      5-min Rain = 0
KRLS 170635Z 28012KT 09/M02 A3009 RMK A01 T00901015  RH  048%=      5-min Rain = 0
KRLS 170640Z 28012KT 09/M02 A3008 RMK A01 T00911015  RH  048%=      5-min Rain = 0
KRLS 170645Z 28013KT 09/M02 A3008 RMK A01 T00901015  RH  048%=      5-min Rain = 0
KRLS 170650Z 28014KT 09/M02 A3007 RMK A01 T00901015  RH  048%=      5-min Rain = 0
KRLS 170655Z 28014KT 09/M02 A3007 RMK A01 T00901015  RH  048%=      5-min Rain = 0
KRLS 170700Z 28015KT 09/M02 A3007 RMK A01 T00891015  RH  048%=      5-min Rain = 0
KRLS 170705Z 28013KT 09/M02 A3007 RMK A01 T00901016  RH  048%=      5-min Rain = 0
KRLS 170710Z 29011G16KT 09/M02 A3007 RMK A01 T00871017  RH  048%=      5-min Rain = 0
KRLS 170715Z 29014KT 09/M02 A3007 RMK A01 T00881017  RH  048%=      5-min Rain = 0
KRLS 170720Z 28015KT 09/M02 A3007 RMK A01 T00891017  RH  047%=      5-min Rain = 0
KRLS 170725Z 27014KT 09/M02 A3006 RMK A01 T00861018  RH  049%=      5-min Rain = 0
KRLS 170730Z 28014KT 09/M02 A3006 RMK A01 T00881018  RH  048%=      5-min Rain = 0
KRLS 170735Z 28012KT 09/M02 A3006 RMK A01 T00861018  RH  048%=      5-min Rain = 0
KRLS 170740Z 28012KT 08/M02 A3006 RMK A01 T00841019  RH  049%=      5-min Rain = 0
KRLS 170745Z 27012KT 08/M02 A3006 RMK A01 T00811018  RH  050%=      5-min Rain = 0
KRLS 170750Z 28012G17KT 08/M02 A3007 RMK A01 T00791017  RH  051%=      5-min Rain = 0
KRLS 170755Z 28013KT 08/M02 A3007 RMK A01 T00811018  RH  050%=      5-min Rain = 0
KRLS 170800Z 27012KT 08/M02 A3007 RMK A01 T00801018  RH  050%=      5-min Rain = 0
KRLS 170805Z 28013KT 08/M02 A3007 RMK A01 T00801018  RH  050%=      5-min Rain = 0
KRLS 170810Z 28013KT 08/M02 A3007 RMK A01 T00791019  RH  050%=      5-min Rain = 0
KRLS 170815Z 28013KT 08/M02 A3007 RMK A01 T00781020  RH  050%=      5-min Rain = 0
KRLS 170820Z 28013G18KT 08/M02 A3007 RMK A01 T00801021  RH  049%=      5-min Rain = 0
KRLS 170825Z 28013KT 08/M02 A3007 RMK A01 T00801022  RH  049%=      5-min Rain = 0
KRLS 170830Z 29013G19KT 08/M02 A3007 RMK A01 T00801022  RH  049%=      5-min Rain = 0
KRLS 170835Z 29013KT 08/M02 A3008 RMK A01 T00801022  RH  049%=      5-min Rain = 0
KRLS 170840Z 29012KT 08/M02 A3008 RMK A01 T00801023  RH  049%=      5-min Rain = 0
KRLS 170845Z 30013KT 08/M02 A3008 RMK A01 T00821023  RH  048%=      5-min Rain = 0
KRLS 170850Z 29012KT 08/M02 A3008 RMK A01 T00801023  RH  049%=      5-min Rain = 0
KRLS 170855Z 29013KT 08/M02 A3008 RMK A01 T00801023  RH  048%=      5-min Rain = 0
KRLS 170900Z 29011G16KT 08/M02 A3009 RMK A01 T00781023  RH  049%=      5-min Rain = 0
KRLS 170905Z 28011KT 08/M02 A3009 RMK A01 T00761023  RH  050%=      5-min Rain = 0
KRLS 170910Z 28011KT 07/M02 A3009 RMK A01 T00741023  RH  051%=      5-min Rain = 0
KRLS 170915Z 27010KT 07/M02 A301 RMK A01 T00721023  RH  051%=      5-min Rain = 0
KRLS 170920Z 28010KT 07/M02 A301 RMK A01 T00711023  RH  051%=      5-min Rain = 0
KRLS 170925Z 28010KT 07/M02 A3011 RMK A01 T00731024  RH  051%=      5-min Rain = 0
KRLS 170930Z 29010KT 07/M02 A3011 RMK A01 T00731024  RH  051%=      5-min Rain = 0
KRLS 170935Z 29010KT 07/M02 A3011 RMK A01 T00721023  RH  051%=      5-min Rain = 0
KRLS 170940Z 29010KT 07/M02 A3011 RMK A01 T00721023  RH  051%=      5-min Rain = 0
KRLS 170945Z 28010KT 07/M02 A3011 RMK A01 T00711023  RH  052%=      5-min Rain = 0
KRLS 170950Z 27010KT 07/M02 A3011 RMK A01 T00661023  RH  053%=      5-min Rain = 0
KRLS 170955Z 26010KT 06/M02 A3012 RMK A01 T00611023  RH  055%=      5-min Rain = 0
KRLS 171000Z 28010KT 06/M02 A3012 RMK A01 T00581024  RH  056%=      5-min Rain = 0
KRLS 171005Z 29011KT 07/M02 A3012 RMK A01 T00651023  RH  054%=      5-min Rain = 0
KRLS 171010Z 28011KT 07/M02 A3012 RMK A01 T00651023  RH  054%=      5-min Rain = 0
KRLS 171015Z 28010KT 06/M02 A3012 RMK A01 T00611023  RH  055%=      5-min Rain = 0
KRLS 171020Z 28010KT 06/M02 A3012 RMK A01 T00591023  RH  056%=      5-min Rain = 0
KRLS 171025Z 28010KT 06/M02 A3012 RMK A01 T00601023  RH  056%=      5-min Rain = 0
KRLS 171030Z 28010KT 06/M02 A3012 RMK A01 T00591023  RH  056%=      5-min Rain = 0
KRLS 171035Z 28011KT 06/M02 A3012 RMK A01 T00591023  RH  056%=      5-min Rain = 0
KRLS 171040Z 28011KT 06/M02 A3012 RMK A01 T00591023  RH  056%=      5-min Rain = 0
KRLS 171045Z 28010KT 06/M02 A3012 RMK A01 T00571023  RH  057%=      5-min Rain = 0
KRLS 171050Z 28011KT 06/M02 A3012 RMK A01 T00581022  RH  057%=      5-min Rain = 0
KRLS 171055Z 28012KT 06/M02 A3012 RMK A01 T00591023  RH  056%=      5-min Rain = 0
KRLS 171100Z 28012G17KT 06/M02 A3012 RMK A01 T00581023  RH  057%=      5-min Rain = 0
KRLS 171105Z 28013G18KT 06/M02 A3012 RMK A01 T00591023  RH  056%=      5-min Rain = 0
KRLS 171110Z 29012KT 06/M02 A3012 RMK A01 T00581023  RH  057%=      5-min Rain = 0
KRLS 171115Z 30012KT 06/M02 A3012 RMK A01 T00561023  RH  057%=      5-min Rain = 0
KRLS 171120Z 29012G17KT 06/M02 A3013 RMK A01 T00571022  RH  057%=      5-min Rain = 0
KRLS 171125Z 29012KT 06/M02 A3013 RMK A01 T00581022  RH  057%=      5-min Rain = 0
KRLS 171130Z 30012KT 06/M02 A3012 RMK A01 T00571022  RH  057%=      5-min Rain = 0
KRLS 171135Z 29013KT 06/M02 A3012 RMK A01 T00591022  RH  057%=      5-min Rain = 0
KRLS 171140Z 29013KT 06/M02 A3013 RMK A01 T00591022  RH  057%=      5-min Rain = 0
KRLS 171145Z 30013KT 06/M02 A3013 RMK A01 T00571022  RH  057%=      5-min Rain = 0
KRLS 171150Z 30013KT 06/M02 A3013 RMK A01 T00601022  RH  056%=      5-min Rain = 0
KRLS 171155Z 30012KT 06/M02 A3013 RMK A01 T00581022  RH  057%=      5-min Rain = 0
KRLS 171200Z 30010KT 05/M02 A3013 RMK A01 T00531022  RH  059%=      5-min Rain = 0
KRLS 171205Z 30011KT 05/M02 A3013 RMK A01 T00511022  RH  060%=      5-min Rain = 0
KRLS 171210Z 30010KT 05/M02 A3013 RMK A01 T00511022  RH  059%=      5-min Rain = 0
KRLS 171215Z 30010KT 05/M02 A3013 RMK A01 T00531022  RH  059%=      5-min Rain = 0
KRLS 171220Z 30010KT 06/M02 A3013 RMK A01 T00571022  RH  057%=      5-min Rain = 0
KRLS 171225Z 31011KT 06/M02 A3013 RMK A01 T00571022  RH  057%=      5-min Rain = 0
KRLS 171230Z 31011KT 06/M02 A3013 RMK A01 T00581022  RH  057%=      5-min Rain = 0
KRLS 171235Z 30010KT 06/M02 A3014 RMK A01 T00581022  RH  057%=      5-min Rain = 0
KRLS 171240Z 29010KT 06/M02 A3014 RMK A01 T00551022  RH  058%=      5-min Rain = 0
KRLS 171245Z 29009KT 05/M02 A3015 RMK A01 T00481024  RH  060%=      5-min Rain = 0
KRLS 171250Z 29009KT 04/M02 A3015 RMK A01 T00441024  RH  062%=      5-min Rain = 0
KRLS 171255Z 30010KT 05/M02 A3015 RMK A01 T00451023  RH  062%=      5-min Rain = 0
KRLS 171300Z 30010KT 04/M02 A3015 RMK A01 T00441023  RH  062%=      5-min Rain = 0
KRLS 171305Z 29010KT 04/M02 A3016 RMK A01 T00441023  RH  062%=      5-min Rain = 0
KRLS 171310Z 29008KT 04/M02 A3016 RMK A01 T00401024  RH  063%=      5-min Rain = 0
KRLS 171315Z 29008KT 04/M02 A3016 RMK A01 T00361024  RH  065%=      5-min Rain = 0
KRLS 171320Z 29009KT 04/M03 A3017 RMK A01 T00371025  RH  065%=      5-min Rain = 0
KRLS 171325Z 28008KT 03/M03 A3017 RMK A01 T00331026  RH  066%=      5-min Rain = 0
KRLS 171330Z 28009KT 03/M03 A3017 RMK A01 T00301026  RH  067%=      5-min Rain = 0
KRLS 171335Z 29010KT 03/M03 A3017 RMK A01 T00321026  RH  066%=      5-min Rain = 0
KRLS 171340Z 29010KT 03/M03 A3017 RMK A01 T00341025  RH  066%=      5-min Rain = 0
KRLS 171345Z 29010KT 03/M03 A3017 RMK A01 T00331025  RH  066%=      5-min Rain = 0
KRLS 171350Z 30011KT 04/M02 A3017 RMK A01 T00351024  RH  066%=      5-min Rain = 0
KRLS 171355Z 30011KT 04/M02 A3017 RMK A01 T00391023  RH  065%=      5-min Rain = 0
KRLS 171400Z 30010KT 04/M02 A3017 RMK A01 T00401023  RH  064%=      5-min Rain = 0
KRLS 171405Z 29009KT 04/M02 A3018 RMK A01 T00381023  RH  065%=      5-min Rain = 0
KRLS 171410Z 28009KT 04/M02 A3018 RMK A01 T00371023  RH  066%=      5-min Rain = 0
KRLS 171415Z 29010KT 04/M02 A3019 RMK A01 T00371021  RH  066%=      5-min Rain = 0
KRLS 171420Z 29010KT 04/M02 A3018 RMK A01 T00401020  RH  065%=      5-min Rain = 0
KRLS 171425Z 29010KT 04/M02 A3018 RMK A01 T00421020  RH  065%=      5-min Rain = 0
KRLS 171430Z 29010KT 04/M02 A3018 RMK A01 T00431019  RH  065%=      5-min Rain = 0
KRLS 171435Z 29009KT 04/M02 A3018 RMK A01 T00431019  RH  064%=      5-min Rain = 0
KRLS 171440Z 29010KT 05/M02 A3018 RMK A01 T00481017  RH  063%=      5-min Rain = 0
KRLS 171445Z 29010KT 05/M02 A3019 RMK A01 T00521015  RH  062%=      5-min Rain = 0
KRLS 171450Z 29011KT 06/M02 A3018 RMK A01 T00571015  RH  061%=      5-min Rain = 0
KRLS 171455Z 30010KT 06/M01 A3018 RMK A01 T00611013  RH  060%=      5-min Rain = 0
KRLS 171500Z 29012KT 06/M01 A3018 RMK A01 T00641013  RH  059%=      5-min Rain = 0
KRLS 171505Z 30011KT 07/M01 A3018 RMK A01 T00671012  RH  058%=      5-min Rain = 0
KRLS 171510Z 30011KT 07/M01 A3018 RMK A01 T00701011  RH  057%=      5-min Rain = 0
KRLS 171515Z 30012KT 07/M01 A3018 RMK A01 T00711011  RH  056%=      5-min Rain = 0
KRLS 171520Z 30009KT 07/M01 A3018 RMK A01 T00741009  RH  056%=      5-min Rain = 0
KRLS 171525Z 30010KT 08/M01 A3019 RMK A01 T00771009  RH  055%=      5-min Rain = 0
KRLS 171530Z 30009KT 08/M01 A3019 RMK A01 T00811007  RH  054%=      5-min Rain = 0
KRLS 171535Z 31009KT 08/M01 A3019 RMK A01 T00821008  RH  053%=      5-min Rain = 0
KRLS 171540Z 31007KT 09/M01 A3019 RMK A01 T00861006  RH  053%=      5-min Rain = 0
KRLS 171545Z 31007KT 09/M00 A3019 RMK A01 T00921004  RH  052%=      5-min Rain = 0
KRLS 171550Z 30008KT 10/M01 A302 RMK A01 T00951005  RH  050%=      5-min Rain = 0
KRLS 171555Z 30006KT 10/M00 A302 RMK A01 T01001002  RH  050%=      5-min Rain = 0
KRLS 171600Z 31006KT 10/M00 A302 RMK A01 T01041003  RH  048%=      5-min Rain = 0
KRLS 171605Z 31007KT 11/M00 A302 RMK A01 T01061003  RH  047%=      5-min Rain = 0
KRLS 171610Z 31006KT 11/M00 A302 RMK A01 T01111002  RH  046%=      5-min Rain = 0
KRLS 171615Z 30006KT 11/M00 A302 RMK A01 T01121004  RH  045%=      5-min Rain = 0
KRLS 171620Z 28007KT 12/M00 A3021 RMK A01 T01161002  RH  045%=      5-min Rain = 0
KRLS 171625Z 28008KT 12/M00 A3021 RMK A01 T01201002  RH  044%=      5-min Rain = 0
KRLS 171630Z 29008KT 12/M01 A3021 RMK A01 T01181006  RH  043%=      5-min Rain = 0
KRLS 171635Z 28007KT 12/M00 A3021 RMK A01 T01231003  RH  042%=      5-min Rain = 0
KRLS 171640Z 29007KT 13/M00 A3021 RMK A01 T01261003  RH  042%=      5-min Rain = 0
KRLS 171645Z 28007KT 13/M00 A3021 RMK A01 T01291002  RH  041%=      5-min Rain = 0
KRLS 171650Z 27006KT 13/M00 A3022 RMK A01 T01301003  RH  040%=      5-min Rain = 0
KRLS 171655Z 28006KT 13/M00 A3022 RMK A01 T01331003  RH  040%=      5-min Rain = 0
KRLS 171700Z 29005KT 13/M01 A3022 RMK A01 T01341008  RH  038%=      5-min Rain = 0
KRLS 171705Z 29005KT 14/M01 A3022 RMK A01 T01361007  RH  038%=      5-min Rain = 0
KRLS 171710Z 27005KT 14/M00 A3021 RMK A01 T01391004  RH  038%=      5-min Rain = 0
KRLS 171715Z 29005KT 14/M00 A3021 RMK A01 T01391003  RH  038%=      5-min Rain = 0
KRLS 171720Z 30005KT 14/00 A3021 RMK A01 T01440001  RH  038%=      5-min Rain = 0
KRLS 171725Z 30006KT 14/00 A3021 RMK A01 T01440002  RH  038%=      5-min Rain = 0
KRLS 171730Z 29006KT 15/00 A3021 RMK A01 T01480001  RH  037%=      5-min Rain = 0
KRLS 171735Z 32005KT 15/M00 A3021 RMK A01 T01491001  RH  036%=      5-min Rain = 0
KRLS 171740Z 33005KT 15/M00 A3021 RMK A01 T01541001  RH  035%=      5-min Rain = 0
KRLS 171745Z 31005KT 15/M00 A3021 RMK A01 T01541004  RH  034%=      5-min Rain = 0
KRLS 171750Z 32005KT 16/M00 A3021 RMK A01 T01571004  RH  034%=      5-min Rain = 0
KRLS 171755Z 31005KT 16/M00 A302 RMK A01 T01581003  RH  034%=      5-min Rain = 0
KRLS 171800Z 32005KT 16/M01 A302 RMK A01 T01601006  RH  033%=      5-min Rain = 0
KRLS 171805Z 33005KT 16/M01 A302 RMK A01 T01611007  RH  032%=      5-min Rain = 0
KRLS 171810Z 32005KT 16/M01 A3019 RMK A01 T01611008  RH  032%=      5-min Rain = 0
KRLS 171815Z 33005KT 16/M01 A3019 RMK A01 T01631012  RH  031%=      5-min Rain = 0
KRLS 171820Z 34004KT 17/M02 A3019 RMK A01 T01661016  RH  029%=      5-min Rain = 0
KRLS 171825Z 33004KT 17/M02 A3019 RMK A01 T01651017  RH  029%=      5-min Rain = 0
KRLS 171830Z 00002KT 17/M02 A3019 RMK A01 T01681016  RH  029%=      5-min Rain = 0
KRLS 171835Z 33004KT 17/M02 A3018 RMK A01 T01711018  RH  028%=      5-min Rain = 0
KRLS 171840Z 35003KT 17/M02 A3018 RMK A01 T01701022  RH  027%=      5-min Rain = 0
KRLS 171845Z 36003KT 17/M03 A3018 RMK A01 T01711025  RH  026%=      5-min Rain = 0
KRLS 171850Z 30003KT 17/M02 A3017 RMK A01 T01721022  RH  027%=      5-min Rain = 0
KRLS 171855Z 28004KT 17/M02 A3017 RMK A01 T01731024  RH  026%=      5-min Rain = 0
KRLS 171900Z 23002KT 17/M03 A3017 RMK A01 T01731025  RH  026%=      5-min Rain = 0
KRLS 171905Z 22000KT 18/M03 A3016 RMK A01 T01821025  RH  025%=      5-min Rain = 0
KRLS 171910Z 35001KT 19/M03 A3016 RMK A01 T01871026  RH  024%=      5-min Rain = 0
KRLS 171915Z 00002KT 18/M03 A3016 RMK A01 T01811026  RH  025%=      5-min Rain = 0
KRLS 171920Z 35004KT 18/M02 A3015 RMK A01 T01781023  RH  026%=      5-min Rain = 0
KRLS 171925Z 02004KT 18/M03 A3015 RMK A01 T01761025  RH  026%=      5-min Rain = 0
KRLS 171930Z 01002KT 18/M03 A3014 RMK A01 T01781029  RH  024%=      5-min Rain = 0
KRLS 171935Z 36003KT 18/M02 A3014 RMK A01 T01821021  RH  025%=      5-min Rain = 0
KRLS 171940Z 28003KT 18/M04 A3014 RMK A01 T01821036  RH  023%=      5-min Rain = 0
KRLS 171945Z 29003KT 18/M04 A3014 RMK A01 T01831041  RH  022%=      5-min Rain = 0
KRLS 171950Z 31002KT 18/M04 A3013 RMK A01 T01831043  RH  021%=      5-min Rain = 0
KRLS 171955Z 32003KT 18/M03 A3013 RMK A01 T01841033  RH  023%=      5-min Rain = 0
KRLS 172000Z 26004KT 18/M04 A3013 RMK A01 T01821037  RH  022%=      5-min Rain = 0
KRLS 172005Z 24005KT 18/M04 A3012 RMK A01 T01811037  RH  023%=      5-min Rain = 0
KRLS 172010Z 25002KT 19/M04 A3012 RMK A01 T01861035  RH  022%=      5-min Rain = 0
KRLS 172015Z 22002KT 18/M04 A3012 RMK A01 T01841037  RH  022%=      5-min Rain = 0
KRLS 172020Z 14003KT 19/M04 A3012 RMK A01 T01881039  RH  021%=      5-min Rain = 0
KRLS 172025Z 24004KT 19/M04 A3012 RMK A01 T01861039  RH  021%=      5-min Rain = 0
KRLS 172030Z 23004KT 18/M04 A3012 RMK A01 T01841042  RH  021%=      5-min Rain = 0
KRLS 172035Z 26001KT 18/M04 A3011 RMK A01 T01841040  RH  022%=      5-min Rain = 0
KRLS 172040Z 19002KT 19/M03 A3011 RMK A01 T01911034  RH  022%=      5-min Rain = 0
KRLS 172045Z 23003KT 20/M03 A3011 RMK A01 T01951033  RH  021%=      5-min Rain = 0
KRLS 172050Z 14004KT 19/M04 A3011 RMK A01 T01931036  RH  021%=      5-min Rain = 0
KRLS 172055Z 17005KT 20/M04 A301 RMK A01 T01961041  RH  020%=      5-min Rain = 0
KRLS 172100Z 18004KT 19/M05 A301 RMK A01 T01941045  RH  020%=      5-min Rain = 0
KRLS 172105Z 23004G9KT 19/M04 A301 RMK A01 T01941040  RH  020%=      5-min Rain = 0
KRLS 172110Z 20007KT 20/M05 A301 RMK A01 T01961045  RH  019%=      5-min Rain = 0
KRLS 172115Z 21002G7KT 19/M05 A301 RMK A01 T01941048  RH  019%=      5-min Rain = 0
KRLS 172120Z 17006KT 20/M05 A301 RMK A01 T01971049  RH  019%=      5-min Rain = 0
KRLS 172125Z 20007KT 20/M05 A301 RMK A01 T01961049  RH  019%=      5-min Rain = 0
KRLS 172130Z 21007KT 20/M05 A301 RMK A01 T01951049  RH  019%=      5-min Rain = 0
KRLS 172135Z 18005KT 19/M06 A301 RMK A01 T01931056  RH  018%=      5-min Rain = 0
KRLS 172140Z 20004KT 19/M06 A301 RMK A01 T01941056  RH  018%=      5-min Rain = 0
KRLS 172145Z 17006KT 20/M05 A301 RMK A01 T01951051  RH  019%=      5-min Rain = 0
KRLS 172150Z 17009KT 19/M05 A301 RMK A01 T01891050  RH  019%=      5-min Rain = 0
KRLS 172155Z 18007KT 19/M05 A301 RMK A01 T01901050  RH  019%=      5-min Rain = 0
KRLS 172200Z 19005KT 19/M05 A301 RMK A01 T01921050  RH  019%=      5-min Rain = 0
KRLS 172205Z 19008KT 20/M05 A301 RMK A01 T01961048  RH  019%=      5-min Rain = 0
KRLS 172210Z 19008KT 20/M05 A301 RMK A01 T01951050  RH  019%=      5-min Rain = 0
KRLS 172215Z 19007KT 20/M05 A301 RMK A01 T01961050  RH  019%=      5-min Rain = 0
KRLS 172220Z 18007KT 19/M05 A301 RMK A01 T01941051  RH  019%=      5-min Rain = 0
KRLS 172225Z 18008KT 19/M05 A301 RMK A01 T01931054  RH  018%=      5-min Rain = 0
KRLS 172230Z 18008KT 19/M05 A301 RMK A01 T01941052  RH  018%=      5-min Rain = 0
KRLS 172235Z 17009KT 19/M04 A301 RMK A01 T01931040  RH  020%=      5-min Rain = 0
KRLS 172240Z 17012KT 19/M04 A301 RMK A01 T01901036  RH  021%=      5-min Rain = 0
KRLS 172245Z 16011KT 19/M04 A301 RMK A01 T01891035  RH  022%=      5-min Rain = 0
KRLS 172250Z 16011KT 19/M04 A3009 RMK A01 T01881037  RH  022%=      5-min Rain = 0
KRLS 172255Z 16011KT 19/M04 A3009 RMK A01 T01861039  RH  022%=      5-min Rain = 0
KRLS 172300Z 16009KT 18/M04 A3009 RMK A01 T01841038  RH  022%=      5-min Rain = 0
KRLS 172305Z 17011KT 18/M04 A3009 RMK A01 T01831036  RH  022%=      5-min Rain = 0
KRLS 172310Z 17010KT 18/M04 A3009 RMK A01 T01781036  RH  023%=      5-min Rain = 0
KRLS 172315Z 17010KT 17/M04 A3009 RMK A01 T01731035  RH  024%=      5-min Rain = 0
KRLS 172320Z 17009KT 17/M04 A3009 RMK A01 T01711035  RH  024%=      5-min Rain = 0
KRLS 172325Z 17008KT 17/M03 A3009 RMK A01 T01691034  RH  025%=      5-min Rain = 0
KRLS 172330Z 17008KT 16/M03 A3008 RMK A01 T01641034  RH  026%=      5-min Rain = 0
KRLS 172335Z 16008KT 16/M03 A3008 RMK A01 T01591032  RH  027%=      5-min Rain = 0
KRLS 172340Z 16008KT 15/M03 A3008 RMK A01 T01521031  RH  028%=      5-min Rain = 0
KRLS 172345Z 16009KT 15/M03 A3008 RMK A01 T01461032  RH  029%=      5-min Rain = 0
KRLS 172350Z 16008KT 14/M03 A3008 RMK A01 T01411032  RH  030%=      5-min Rain = 0
KRLS 172355Z 16008KT 14/M03 A3008 RMK A01 T01351031  RH  032%=      5-min Rain = 0
KRLS 180000Z 16008KT 13/M03 A3008 RMK A01 T01301032  RH  032%=      5-min Rain = 0
KRLS 180005Z 16009KT 13/M03 A3008 RMK A01 T01251033  RH  033%=      5-min Rain = 0
KRLS 180010Z 16008KT 12/M03 A3008 RMK A01 T01201033  RH  035%=      5-min Rain = 0
KRLS 180015Z 16009KT 12/M03 A3008 RMK A01 T01161031  RH  036%=      5-min Rain = 0
KRLS 180020Z 16009KT 11/M03 A3008 RMK A01 T01131030  RH  037%=      5-min Rain = 0
KRLS 180025Z 15008KT 11/M03 A3008 RMK A01 T01081030  RH  038%=      5-min Rain = 0
KRLS 180030Z 15008KT 10/M03 A3008 RMK A01 T01021032  RH  039%=      5-min Rain = 0
KRLS 180035Z 15008KT 10/M03 A3008 RMK A01 T00971032  RH  040%=      5-min Rain = 0
KRLS 180040Z 15008KT 09/M03 A3008 RMK A01 T00931033  RH  041%=      5-min Rain = 0
KRLS 180045Z 15009KT 09/M03 A3008 RMK A01 T00881032  RH  043%=      5-min Rain = 0
KRLS 180050Z 15009KT 09/M03 A3008 RMK A01 T00861031  RH  044%=      5-min Rain = 0
KRLS 180055Z 15008KT 08/M03 A3008 RMK A01 T00841030  RH  045%=      5-min Rain = 0
KRLS 180100Z 15008KT 08/M03 A3008 RMK A01 T00811029  RH  046%=      5-min Rain = 0
KRLS 180105Z 15009KT 08/M03 A3008 RMK A01 T00801027  RH  047%=      5-min Rain = 0
KRLS 180110Z 15009KT 08/M03 A3008 RMK A01 T00781028  RH  047%=      5-min Rain = 0
KRLS 180115Z 15009KT 08/M03 A3008 RMK A01 T00761027  RH  048%=      5-min Rain = 0
KRLS 180120Z 15009KT 07/M03 A3008 RMK A01 T00731025  RH  050%=      5-min Rain = 0
KRLS 180125Z 15008KT 07/M02 A3008 RMK A01 T00711022  RH  052%=      5-min Rain = 0
KRLS 180130Z 15008KT 07/M02 A3008 RMK A01 T00691021  RH  053%=      5-min Rain = 0
KRLS 180135Z 14008KT 07/M02 A3008 RMK A01 T00681019  RH  054%=      5-min Rain = 0
KRLS 180140Z 15008KT 07/M02 A3008 RMK A01 T00671018  RH  055%=      5-min Rain = 0
KRLS 180145Z 14007KT 07/M02 A3008 RMK A01 T00681016  RH  055%=      5-min Rain = 0
KRLS 180150Z 14007KT 07/M02 A3008 RMK A01 T00691015  RH  056%=      5-min Rain = 0
KRLS 180155Z 14008KT 07/M01 A3008 RMK A01 T00711012  RH  056%=      5-min Rain = 0
KRLS 180200Z 14008KT 07/M01 A3008 RMK A01 T00711011  RH  056%=      5-min Rain = 0
KRLS 180205Z 14008KT 07/M01 A3008 RMK A01 T00681012  RH  057%=      5-min Rain = 0
KRLS 180210Z 15007KT 06/M01 A3007 RMK A01 T00641012  RH  059%=      5-min Rain = 0
KRLS 180215Z 15007KT 06/M01 A3007 RMK A01 T00611012  RH  060%=      5-min Rain = 0
KRLS 180220Z 15006KT 06/M01 A3007 RMK A01 T00571013  RH  061%=      5-min Rain = 0
KRLS 180225Z 15006KT 06/M01 A3007 RMK A01 T00581012  RH  061%=      5-min Rain = 0
KRLS 180230Z 15006KT 06/M01 A3007 RMK A01 T00581013  RH  061%=      5-min Rain = 0
KRLS 180235Z 14007KT 06/M01 A3007 RMK A01 T00561013  RH  062%=      5-min Rain = 0
KRLS 180240Z 14007KT 06/M01 A3007 RMK A01 T00551013  RH  062%=      5-min Rain = 0
KRLS 180245Z 15009KT 05/M01 A3007 RMK A01 T00541011  RH  063%=      5-min Rain = 0
KRLS 180250Z 15010KT 06/M01 A3007 RMK A01 T00591005  RH  064%=      5-min Rain = 0
KRLS 180255Z 15010KT 06/M00 A3007 RMK A01 T00641001  RH  064%=      5-min Rain = 0
KRLS 180300Z 15010KT 07/00 A3007 RMK A01 T00660001  RH  064%=      5-min Rain = 0
KRLS 180305Z 15010KT 07/00 A3006 RMK A01 T00680003  RH  064%=      5-min Rain = 0
KRLS 180310Z 14010KT 07/00 A3006 RMK A01 T00690004  RH  064%=      5-min Rain = 0
KRLS 180315Z 15010KT 07/00 A3006 RMK A01 T00680004  RH  064%=      5-min Rain = 0
KRLS 180320Z 15009KT 07/01 A3006 RMK A01 T00690005  RH  064%=      5-min Rain = 0
KRLS 180325Z 15009KT 07/01 A3006 RMK A01 T00690005  RH  064%=      5-min Rain = 0
KRLS 180330Z 15008KT 07/00 A3006 RMK A01 T00660004  RH  065%=      5-min Rain = 0
KRLS 180335Z 15008KT 06/00 A3006 RMK A01 T00630002  RH  066%=      5-min Rain = 0
KRLS 180340Z 15008KT 06/00 A3006 RMK A01 T00590000  RH  067%=      5-min Rain = 0
KRLS 180345Z 15009KT 06/00 A3006 RMK A01 T005700-0  RH  067%=      5-min Rain = 0
KRLS 180350Z 14009KT 06/M00 A3005 RMK A01 T00551002  RH  068%=      5-min Rain = 0
KRLS 180355Z 14009KT 05/M00 A3005 RMK A01 T00541002  RH  068%=      5-min Rain = 0
KRLS 180400Z 14009KT 05/M00 A3005 RMK A01 T00541001  RH  069%=      5-min Rain = 0
KRLS 180405Z 15010KT 05/M00 A3004 RMK A01 T00511002  RH  070%=      5-min Rain = 0
KRLS 180410Z 15010KT 05/00 A3004 RMK A01 T00520000  RH  070%=      5-min Rain = 0
KRLS 180415Z 15011KT 05/00 A3004 RMK A01 T00540002  RH  070%=      5-min Rain = 0
KRLS 180420Z 16011KT 05/00 A3004 RMK A01 T00540002  RH  070%=      5-min Rain = 0
KRLS 180425Z 16010KT 05/00 A3004 RMK A01 T00530001  RH  070%=      5-min Rain = 0
KRLS 180430Z 16009KT 05/M00 A3004 RMK A01 T00511001  RH  070%=      5-min Rain = 0
KRLS 180435Z 17003KT 04/M01 A3004 RMK A01 T00381009  RH  072%=      5-min Rain = 0
KRLS 180440Z 17003KT 03/M01 A3004 RMK A01 T00331009  RH  075%=      5-min Rain = 0
KRLS 180445Z 17004KT 03/M01 A3004 RMK A01 T00321008  RH  076%=      5-min Rain = 0
KRLS 180450Z 16006KT 03/M01 A3004 RMK A01 T00291010  RH  076%=      5-min Rain = 0
KRLS 180455Z 17004KT 03/M01 A3004 RMK A01 T00261011  RH  077%=      5-min Rain = 0
KRLS 180500Z 17006KT 03/M01 A3004 RMK A01 T00331006  RH  077%=      5-min Rain = 0
KRLS 180505Z 17006KT 04/M01 A3004 RMK A01 T00381005  RH  074%=      5-min Rain = 0
KRLS 180510Z 16006KT 03/M01 A3004 RMK A01 T00331010  RH  074%=      5-min Rain = 0
KRLS 180515Z 16005KT 03/M01 A3004 RMK A01 T00311010  RH  075%=      5-min Rain = 0
KRLS 180520Z 17006KT 04/M01 A3004 RMK A01 T00351007  RH  075%=      5-min Rain = 0
KRLS 180525Z 17005KT 04/M01 A3004 RMK A01 T00361006  RH  075%=      5-min Rain = 0
KRLS 180530Z 18004KT 04/M00 A3003 RMK A01 T00431003  RH  073%=      5-min Rain = 0
KRLS 180535Z 19003KT 04/M01 A3003 RMK A01 T00421005  RH  072%=      5-min Rain = 0
KRLS 180540Z 19004KT 04/M01 A3003 RMK A01 T00401006  RH  073%=      5-min Rain = 0
KRLS 180545Z 19005KT 04/M01 A3003 RMK A01 T00411006  RH  072%=      5-min Rain = 0
KRLS 180550Z 19006KT 04/M01 A3002 RMK A01 T00351010  RH  073%=      5-min Rain = 0
KRLS 180555Z 19006KT 03/M01 A3002 RMK A01 T00321010  RH  074%=      5-min Rain = 0

Page generated in 0.009 seconds.